sensor_id;sensor_type;location;lat;lon;timestamp;temperature;humidity
69503;SHT31;56704;54.242;12.442;2023-06-10T00:00:08;13.63;75.84
69503;SHT31;56704;54.242;12.442;2023-06-10T00:02:38;13.58;75.95
69503;SHT31;56704;54.242;12.442;2023-06-10T00:05:06;13.55;76.06
69503;SHT31;56704;54.242;12.442;2023-06-10T00:07:35;13.54;76.40
69503;SHT31;56704;54.242;12.442;2023-06-10T00:10:03;13.55;76.23
69503;SHT31;56704;54.242;12.442;2023-06-10T00:12:32;13.52;76.44
69503;SHT31;56704;54.242;12.442;2023-06-10T00:15:04;13.54;76.25
69503;SHT31;56704;54.242;12.442;2023-06-10T00:17:30;13.54;76.42
69503;SHT31;56704;54.242;12.442;2023-06-10T00:19:57;13.51;76.44
69503;SHT31;56704;54.242;12.442;2023-06-10T00:22:24;13.49;76.58
69503;SHT31;56704;54.242;12.442;2023-06-10T00:24:57;13.51;76.56
69503;SHT31;56704;54.242;12.442;2023-06-10T00:27:24;13.55;76.46
69503;SHT31;56704;54.242;12.442;2023-06-10T00:29:57;13.55;76.42
69503;SHT31;56704;54.242;12.442;2023-06-10T00:32:24;13.52;76.51
69503;SHT31;56704;54.242;12.442;2023-06-10T00:34:51;13.52;76.48
69503;SHT31;56704;54.242;12.442;2023-06-10T00:37:17;13.57;76.48
69503;SHT31;56704;54.242;12.442;2023-06-10T00:39:44;13.55;76.19
69503;SHT31;56704;54.242;12.442;2023-06-10T00:42:11;13.55;76.22
69503;SHT31;56704;54.242;12.442;2023-06-10T00:44:37;13.54;76.16
69503;SHT31;56704;54.242;12.442;2023-06-10T00:47:07;13.58;76.12
69503;SHT31;56704;54.242;12.442;2023-06-10T00:49:34;13.58;75.98
69503;SHT31;56704;54.242;12.442;2023-06-10T00:52:01;13.58;75.78
69503;SHT31;56704;54.242;12.442;2023-06-10T00:54:30;13.62;75.62
69503;SHT31;56704;54.242;12.442;2023-06-10T00:56:57;13.61;75.67
69503;SHT31;56704;54.242;12.442;2023-06-10T00:59:24;13.62;75.76
69503;SHT31;56704;54.242;12.442;2023-06-10T01:01:51;13.57;75.45
69503;SHT31;56704;54.242;12.442;2023-06-10T01:04:19;13.62;75.63
69503;SHT31;56704;54.242;12.442;2023-06-10T01:06:54;13.63;75.59
69503;SHT31;56704;54.242;12.442;2023-06-10T01:09:31;13.62;75.68
69503;SHT31;56704;54.242;12.442;2023-06-10T01:12:02;13.59;75.64
69503;SHT31;56704;54.242;12.442;2023-06-10T01:14:35;13.59;75.85
69503;SHT31;56704;54.242;12.442;2023-06-10T01:17:02;13.59;75.74
69503;SHT31;56704;54.242;12.442;2023-06-10T01:19:32;13.58;75.78
69503;SHT31;56704;54.242;12.442;2023-06-10T01:22:00;13.61;75.73
69503;SHT31;56704;54.242;12.442;2023-06-10T01:24:27;13.63;75.76
69503;SHT31;56704;54.242;12.442;2023-06-10T01:26:55;13.63;75.84
69503;SHT31;56704;54.242;12.442;2023-06-10T01:29:29;13.59;75.84
69503;SHT31;56704;54.242;12.442;2023-06-10T01:32:03;13.54;76.00
69503;SHT31;56704;54.242;12.442;2023-06-10T01:34:33;13.57;75.92
69503;SHT31;56704;54.242;12.442;2023-06-10T01:37:02;13.52;76.24
69503;SHT31;56704;54.242;12.442;2023-06-10T01:39:30;13.55;76.22
69503;SHT31;56704;54.242;12.442;2023-06-10T01:41:58;13.57;76.08
69503;SHT31;56704;54.242;12.442;2023-06-10T01:44:25;13.54;76.28
69503;SHT31;56704;54.242;12.442;2023-06-10T01:46:52;13.54;76.37
69503;SHT31;56704;54.242;12.442;2023-06-10T01:49:18;13.51;76.38
69503;SHT31;56704;54.242;12.442;2023-06-10T01:51:47;13.47;76.56
69503;SHT31;56704;54.242;12.442;2023-06-10T01:54:15;13.48;76.53
69503;SHT31;56704;54.242;12.442;2023-06-10T01:56:42;13.49;76.58
69503;SHT31;56704;54.242;12.442;2023-06-10T01:59:08;13.51;76.78
69503;SHT31;56704;54.242;12.442;2023-06-10T02:01:35;13.47;76.87
69503;SHT31;56704;54.242;12.442;2023-06-10T02:04:02;13.45;76.87
69503;SHT31;56704;54.242;12.442;2023-06-10T02:06:28;13.35;77.24
69503;SHT31;56704;54.242;12.442;2023-06-10T02:08:56;13.37;77.23
69503;SHT31;56704;54.242;12.442;2023-06-10T02:11:24;13.37;77.21
69503;SHT31;56704;54.242;12.442;2023-06-10T02:13:52;13.35;77.35
69503;SHT31;56704;54.242;12.442;2023-06-10T02:16:18;13.35;77.32
69503;SHT31;56704;54.242;12.442;2023-06-10T02:18:46;13.35;77.36
69503;SHT31;56704;54.242;12.442;2023-06-10T02:21:13;13.37;77.48
69503;SHT31;56704;54.242;12.442;2023-06-10T02:23:40;13.34;77.59
69503;SHT31;56704;54.242;12.442;2023-06-10T02:26:07;13.32;77.61
69503;SHT31;56704;54.242;12.442;2023-06-10T02:28:34;13.32;77.65
69503;SHT31;56704;54.242;12.442;2023-06-10T02:31:01;13.30;77.91
69503;SHT31;56704;54.242;12.442;2023-06-10T02:33:28;13.32;77.82
69503;SHT31;56704;54.242;12.442;2023-06-10T02:35:55;13.30;77.75
69503;SHT31;56704;54.242;12.442;2023-06-10T02:38:21;13.31;77.97
69503;SHT31;56704;54.242;12.442;2023-06-10T02:40:48;13.30;77.86
69503;SHT31;56704;54.242;12.442;2023-06-10T02:43:14;13.27;78.10
69503;SHT31;56704;54.242;12.442;2023-06-10T02:45:42;13.27;78.06
69503;SHT31;56704;54.242;12.442;2023-06-10T02:48:09;13.27;78.18
69503;SHT31;56704;54.242;12.442;2023-06-10T02:50:36;13.27;78.25
69503;SHT31;56704;54.242;12.442;2023-06-10T02:53:04;13.30;78.09
69503;SHT31;56704;54.242;12.442;2023-06-10T02:55:30;13.31;77.98
69503;SHT31;56704;54.242;12.442;2023-06-10T02:57:57;13.30;78.17
69503;SHT31;56704;54.242;12.442;2023-06-10T03:00:24;13.28;78.30
69503;SHT31;56704;54.242;12.442;2023-06-10T03:02:52;13.34;78.10
69503;SHT31;56704;54.242;12.442;2023-06-10T03:05:22;13.32;78.31
69503;SHT31;56704;54.242;12.442;2023-06-10T03:07:49;13.35;78.30
69503;SHT31;56704;54.242;12.442;2023-06-10T03:10:16;13.32;78.36
69503;SHT31;56704;54.242;12.442;2023-06-10T03:12:43;13.28;78.65
69503;SHT31;56704;54.242;12.442;2023-06-10T03:15:10;13.30;78.61
69503;SHT31;56704;54.242;12.442;2023-06-10T03:17:36;13.32;78.55
69503;SHT31;56704;54.242;12.442;2023-06-10T03:20:06;13.32;78.54
69503;SHT31;56704;54.242;12.442;2023-06-10T03:22:35;13.35;78.58
69503;SHT31;56704;54.242;12.442;2023-06-10T03:25:03;13.41;78.55
69503;SHT31;56704;54.242;12.442;2023-06-10T03:27:30;13.37;78.67
69503;SHT31;56704;54.242;12.442;2023-06-10T03:29:58;13.41;78.58
69503;SHT31;56704;54.242;12.442;2023-06-10T03:32:24;13.48;78.57
69503;SHT31;56704;54.242;12.442;2023-06-10T03:34:51;13.45;78.72
69503;SHT31;56704;54.242;12.442;2023-06-10T03:37:24;13.49;78.51
69503;SHT31;56704;54.242;12.442;2023-06-10T03:39:51;13.55;78.55
69503;SHT31;56704;54.242;12.442;2023-06-10T03:42:18;13.54;78.68
69503;SHT31;56704;54.242;12.442;2023-06-10T03:44:44;13.62;78.53
69503;SHT31;56704;54.242;12.442;2023-06-10T03:47:11;13.62;78.50
69503;SHT31;56704;54.242;12.442;2023-06-10T03:49:39;13.69;78.41
69503;SHT31;56704;54.242;12.442;2023-06-10T03:52:06;13.73;78.28
69503;SHT31;56704;54.242;12.442;2023-06-10T03:54:34;13.75;78.25
69503;SHT31;56704;54.242;12.442;2023-06-10T03:57:01;13.79;78.24
69503;SHT31;56704;54.242;12.442;2023-06-10T03:59:28;13.86;78.23
69503;SHT31;56704;54.242;12.442;2023-06-10T04:01:55;13.89;78.15
69503;SHT31;56704;54.242;12.442;2023-06-10T04:04:23;13.96;77.93
69503;SHT31;56704;54.242;12.442;2023-06-10T04:06:50;13.99;78.01
69503;SHT31;56704;54.242;12.442;2023-06-10T04:09:16;14.00;78.01
69503;SHT31;56704;54.242;12.442;2023-06-10T04:11:44;14.07;77.82
69503;SHT31;56704;54.242;12.442;2023-06-10T04:14:11;14.09;77.79
69503;SHT31;56704;54.242;12.442;2023-06-10T04:16:38;14.10;77.93
69503;SHT31;56704;54.242;12.442;2023-06-10T04:19:07;14.13;77.82
69503;SHT31;56704;54.242;12.442;2023-06-10T04:21:33;14.20;77.84
69503;SHT31;56704;54.242;12.442;2023-06-10T04:24:01;14.21;77.79
69503;SHT31;56704;54.242;12.442;2023-06-10T04:26:28;14.26;77.75
69503;SHT31;56704;54.242;12.442;2023-06-10T04:28:56;14.33;77.62
69503;SHT31;56704;54.242;12.442;2023-06-10T04:31:23;14.41;77.26
69503;SHT31;56704;54.242;12.442;2023-06-10T04:33:49;14.47;77.40
69503;SHT31;56704;54.242;12.442;2023-06-10T04:36:16;14.52;77.16
69503;SHT31;56704;54.242;12.442;2023-06-10T04:38:42;14.60;77.03
69503;SHT31;56704;54.242;12.442;2023-06-10T04:41:09;14.65;76.88
69503;SHT31;56704;54.242;12.442;2023-06-10T04:43:36;14.72;76.81
69503;SHT31;56704;54.242;12.442;2023-06-10T04:46:04;14.78;76.51
69503;SHT31;56704;54.242;12.442;2023-06-10T04:48:32;14.81;76.41
69503;SHT31;56704;54.242;12.442;2023-06-10T04:51:00;14.89;76.36
69503;SHT31;56704;54.242;12.442;2023-06-10T04:53:27;14.98;76.07
69503;SHT31;56704;54.242;12.442;2023-06-10T04:55:53;15.06;75.91
69503;SHT31;56704;54.242;12.442;2023-06-10T04:58:20;15.13;75.68
69503;SHT31;56704;54.242;12.442;2023-06-10T05:00:47;15.16;75.44
69503;SHT31;56704;54.242;12.442;2023-06-10T05:03:15;15.16;75.51
69503;SHT31;56704;54.242;12.442;2023-06-10T05:05:41;15.20;75.29
69503;SHT31;56704;54.242;12.442;2023-06-10T05:08:08;15.26;74.98
69503;SHT31;56704;54.242;12.442;2023-06-10T05:10:34;15.30;74.99
69503;SHT31;56704;54.242;12.442;2023-06-10T05:13:01;15.38;74.90
69503;SHT31;56704;54.242;12.442;2023-06-10T05:15:28;15.42;74.74
69503;SHT31;56704;54.242;12.442;2023-06-10T05:17:56;15.51;74.56
69503;SHT31;56704;54.242;12.442;2023-06-10T05:20:25;15.60;74.36
69503;SHT31;56704;54.242;12.442;2023-06-10T05:22:53;15.70;74.13
69503;SHT31;56704;54.242;12.442;2023-06-10T05:25:20;15.76;73.97
69503;SHT31;56704;54.242;12.442;2023-06-10T05:27:47;15.83;73.96
69503;SHT31;56704;54.242;12.442;2023-06-10T05:30:13;15.83;73.85
69503;SHT31;56704;54.242;12.442;2023-06-10T05:32:40;15.81;73.99
69503;SHT31;56704;54.242;12.442;2023-06-10T05:35:07;15.84;73.92
69503;SHT31;56704;54.242;12.442;2023-06-10T05:37:35;15.86;73.69
69503;SHT31;56704;54.242;12.442;2023-06-10T05:40:02;15.96;73.63
69503;SHT31;56704;54.242;12.442;2023-06-10T05:42:29;16.11;73.43
69503;SHT31;56704;54.242;12.442;2023-06-10T05:44:56;16.18;73.30
69503;SHT31;56704;54.242;12.442;2023-06-10T05:47:22;16.32;72.98
69503;SHT31;56704;54.242;12.442;2023-06-10T05:49:49;16.42;72.73
69503;SHT31;56704;54.242;12.442;2023-06-10T05:52:17;16.58;72.30
69503;SHT31;56704;54.242;12.442;2023-06-10T05:54:45;16.68;71.89
69503;SHT31;56704;54.242;12.442;2023-06-10T05:57:12;16.72;71.50
69503;SHT31;56704;54.242;12.442;2023-06-10T05:59:38;16.77;71.58
69503;SHT31;56704;54.242;12.442;2023-06-10T06:02:05;16.81;71.01
69503;SHT31;56704;54.242;12.442;2023-06-10T06:06:57;16.96;70.66
69503;SHT31;56704;54.242;12.442;2023-06-10T06:09:24;17.02;70.38
69503;SHT31;56704;54.242;12.442;2023-06-10T06:11:54;17.10;70.14
69503;SHT31;56704;54.242;12.442;2023-06-10T06:14:20;17.11;70.05
69503;SHT31;56704;54.242;12.442;2023-06-10T06:16:47;17.18;69.99
69503;SHT31;56704;54.242;12.442;2023-06-10T06:19:14;17.21;69.96
69503;SHT31;56704;54.242;12.442;2023-06-10T06:21:41;17.31;69.98
69503;SHT31;56704;54.242;12.442;2023-06-10T06:24:07;17.47;69.54
69503;SHT31;56704;54.242;12.442;2023-06-10T06:26:34;17.44;69.36
69503;SHT31;56704;54.242;12.442;2023-06-10T06:29:02;17.52;69.45
69503;SHT31;56704;54.242;12.442;2023-06-10T06:31:29;17.57;69.05
69503;SHT31;56704;54.242;12.442;2023-06-10T06:33:56;17.71;69.01
69503;SHT31;56704;54.242;12.442;2023-06-10T06:36:22;17.76;68.95
69503;SHT31;56704;54.242;12.442;2023-06-10T06:38:49;17.85;68.65
69503;SHT31;56704;54.242;12.442;2023-06-10T06:41:15;17.96;68.49
69503;SHT31;56704;54.242;12.442;2023-06-10T06:43:42;17.96;68.01
69503;SHT31;56704;54.242;12.442;2023-06-10T06:46:10;18.05;67.85
69503;SHT31;56704;54.242;12.442;2023-06-10T06:48:37;18.08;67.82
69503;SHT31;56704;54.242;12.442;2023-06-10T06:51:03;18.17;67.57
69503;SHT31;56704;54.242;12.442;2023-06-10T06:53:30;18.23;67.71
69503;SHT31;56704;54.242;12.442;2023-06-10T06:55:56;18.29;67.32
69503;SHT31;56704;54.242;12.442;2023-06-10T06:58:23;18.34;67.16
69503;SHT31;56704;54.242;12.442;2023-06-10T07:00:50;18.44;67.13
69503;SHT31;56704;54.242;12.442;2023-06-10T07:03:18;18.58;66.56
69503;SHT31;56704;54.242;12.442;2023-06-10T07:05:44;18.68;66.01
69503;SHT31;56704;54.242;12.442;2023-06-10T07:08:11;18.64;65.93
69503;SHT31;56704;54.242;12.442;2023-06-10T07:10:37;18.78;65.89
69503;SHT31;56704;54.242;12.442;2023-06-10T07:13:04;18.85;65.20
69503;SHT31;56704;54.242;12.442;2023-06-10T07:15:31;18.89;65.39
69503;SHT31;56704;54.242;12.442;2023-06-10T07:17:58;18.94;65.43
69503;SHT31;56704;54.242;12.442;2023-06-10T07:20:26;19.08;65.06
69503;SHT31;56704;54.242;12.442;2023-06-10T07:22:53;19.25;64.23
69503;SHT31;56704;54.242;12.442;2023-06-10T07:25:20;19.35;63.98
69503;SHT31;56704;54.242;12.442;2023-06-10T07:27:46;19.56;63.27
69503;SHT31;56704;54.242;12.442;2023-06-10T07:30:13;19.74;62.63
69503;SHT31;56704;54.242;12.442;2023-06-10T07:32:40;20.22;62.05
69503;SHT31;56704;54.242;12.442;2023-06-10T07:35:08;20.49;60.51
69503;SHT31;56704;54.242;12.442;2023-06-10T07:37:37;20.79;59.70
69503;SHT31;56704;54.242;12.442;2023-06-10T07:40:05;20.97;59.26
69503;SHT31;56704;54.242;12.442;2023-06-10T07:42:32;21.20;58.49
69503;SHT31;56704;54.242;12.442;2023-06-10T07:44:58;21.34;57.94
69503;SHT31;56704;54.242;12.442;2023-06-10T07:47:25;21.23;57.83
69503;SHT31;56704;54.242;12.442;2023-06-10T07:49:51;21.37;57.51
69503;SHT31;56704;54.242;12.442;2023-06-10T07:52:18;21.41;56.83
69503;SHT31;56704;54.242;12.442;2023-06-10T07:54:46;21.50;57.03
69503;SHT31;56704;54.242;12.442;2023-06-10T07:57:13;21.41;56.80
69503;SHT31;56704;54.242;12.442;2023-06-10T07:59:39;21.59;56.22
69503;SHT31;56704;54.242;12.442;2023-06-10T08:02:06;22.02;55.55
69503;SHT31;56704;54.242;12.442;2023-06-10T08:04:32;22.16;54.72
69503;SHT31;56704;54.242;12.442;2023-06-10T08:07:01;22.12;54.71
69503;SHT31;56704;54.242;12.442;2023-06-10T08:09:27;22.37;54.58
69503;SHT31;56704;54.242;12.442;2023-06-10T08:11:58;22.35;54.18
69503;SHT31;56704;54.242;12.442;2023-06-10T08:14:25;22.06;55.18
69503;SHT31;56704;54.242;12.442;2023-06-10T08:16:51;22.37;55.58
69503;SHT31;56704;54.242;12.442;2023-06-10T08:19:18;22.54;53.99
69503;SHT31;56704;54.242;12.442;2023-06-10T08:21:56;22.40;54.54
69503;SHT31;56704;54.242;12.442;2023-06-10T08:24:37;22.49;53.82
69503;SHT31;56704;54.242;12.442;2023-06-10T08:27:06;22.64;53.97
69503;SHT31;56704;54.242;12.442;2023-06-10T08:29:32;22.20;54.64
69503;SHT31;56704;54.242;12.442;2023-06-10T08:31:59;22.23;55.27
69503;SHT31;56704;54.242;12.442;2023-06-10T08:34:26;22.47;55.02
69503;SHT31;56704;54.242;12.442;2023-06-10T08:36:53;22.64;54.46
69503;SHT31;56704;54.242;12.442;2023-06-10T08:39:21;22.68;54.06
69503;SHT31;56704;54.242;12.442;2023-06-10T08:41:56;22.91;53.80
69503;SHT31;56704;54.242;12.442;2023-06-10T08:44:28;23.03;53.34
69503;SHT31;56704;54.242;12.442;2023-06-10T08:46:56;23.22;53.30
69503;SHT31;56704;54.242;12.442;2023-06-10T08:49:26;23.32;52.98
69503;SHT31;56704;54.242;12.442;2023-06-10T08:51:58;23.18;52.73
69503;SHT31;56704;54.242;12.442;2023-06-10T08:54:27;23.31;53.41
69503;SHT31;56704;54.242;12.442;2023-06-10T08:56:57;23.55;52.35
69503;SHT31;56704;54.242;12.442;2023-06-10T08:59:25;23.58;51.71
69503;SHT31;56704;54.242;12.442;2023-06-10T09:01:54;23.62;51.45
69503;SHT31;56704;54.242;12.442;2023-06-10T09:04:20;23.35;51.87
69503;SHT31;56704;54.242;12.442;2023-06-10T09:06:49;23.22;52.21
69503;SHT31;56704;54.242;12.442;2023-06-10T09:09:16;23.12;52.17
69503;SHT31;56704;54.242;12.442;2023-06-10T09:11:44;23.42;52.85
69503;SHT31;56704;54.242;12.442;2023-06-10T09:14:11;23.49;53.07
69503;SHT31;56704;54.242;12.442;2023-06-10T09:16:38;23.48;53.01
69503;SHT31;56704;54.242;12.442;2023-06-10T09:19:07;23.67;52.42
69503;SHT31;56704;54.242;12.442;2023-06-10T09:21:34;23.77;52.42
69503;SHT31;56704;54.242;12.442;2023-06-10T09:24:01;23.59;51.97
69503;SHT31;56704;54.242;12.442;2023-06-10T09:26:29;23.61;51.86
69503;SHT31;56704;54.242;12.442;2023-06-10T09:29:01;23.82;51.70
69503;SHT31;56704;54.242;12.442;2023-06-10T09:31:29;24.09;51.82
69503;SHT31;56704;54.242;12.442;2023-06-10T09:34:08;24.21;50.71
69503;SHT31;56704;54.242;12.442;2023-06-10T09:36:36;24.31;50.82
69503;SHT31;56704;54.242;12.442;2023-06-10T09:39:03;24.40;50.35
69503;SHT31;56704;54.242;12.442;2023-06-10T09:41:33;24.28;50.63
69503;SHT31;56704;54.242;12.442;2023-06-10T09:44:00;24.27;50.54
69503;SHT31;56704;54.242;12.442;2023-06-10T09:46:31;24.20;50.68
69503;SHT31;56704;54.242;12.442;2023-06-10T09:48:58;24.23;51.12
69503;SHT31;56704;54.242;12.442;2023-06-10T09:51:26;24.38;51.28
69503;SHT31;56704;54.242;12.442;2023-06-10T09:53:53;24.61;50.63
69503;SHT31;56704;54.242;12.442;2023-06-10T09:56:20;24.84;49.85
69503;SHT31;56704;54.242;12.442;2023-06-10T09:58:53;24.60;49.75
69503;SHT31;56704;54.242;12.442;2023-06-10T10:01:19;24.76;50.10
69503;SHT31;56704;54.242;12.442;2023-06-10T10:03:47;24.72;49.89
69503;SHT31;56704;54.242;12.442;2023-06-10T10:06:14;24.93;49.97
69503;SHT31;56704;54.242;12.442;2023-06-10T10:08:43;24.96;49.17
69503;SHT31;56704;54.242;12.442;2023-06-10T10:11:10;24.89;49.55
69503;SHT31;56704;54.242;12.442;2023-06-10T10:13:37;24.95;49.91
69503;SHT31;56704;54.242;12.442;2023-06-10T10:16:11;25.03;49.40
69503;SHT31;56704;54.242;12.442;2023-06-10T10:18:43;25.13;48.97
69503;SHT31;56704;54.242;12.442;2023-06-10T10:21:13;25.05;48.91
69503;SHT31;56704;54.242;12.442;2023-06-10T10:23:48;25.09;49.54
69503;SHT31;56704;54.242;12.442;2023-06-10T10:26:16;24.99;48.80
69503;SHT31;56704;54.242;12.442;2023-06-10T10:28:48;25.11;49.46
69503;SHT31;56704;54.242;12.442;2023-06-10T10:31:19;25.11;49.13
69503;SHT31;56704;54.242;12.442;2023-06-10T10:33:54;24.81;49.59
69503;SHT31;56704;54.242;12.442;2023-06-10T10:36:22;24.68;49.63
69503;SHT31;56704;54.242;12.442;2023-06-10T10:38:50;24.85;49.49
69503;SHT31;56704;54.242;12.442;2023-06-10T10:41:18;25.09;49.32
69503;SHT31;56704;54.242;12.442;2023-06-10T10:43:46;25.44;48.90
69503;SHT31;56704;54.242;12.442;2023-06-10T10:46:14;25.64;48.41
69503;SHT31;56704;54.242;12.442;2023-06-10T10:48:42;25.22;48.24
69503;SHT31;56704;54.242;12.442;2023-06-10T10:51:10;25.53;48.26
69503;SHT31;56704;54.242;12.442;2023-06-10T10:53:37;25.85;48.07
69503;SHT31;56704;54.242;12.442;2023-06-10T10:56:12;25.90;47.35
69503;SHT31;56704;54.242;12.442;2023-06-10T10:58:40;26.11;47.01
69503;SHT31;56704;54.242;12.442;2023-06-10T11:01:11;26.35;46.86
69503;SHT31;56704;54.242;12.442;2023-06-10T11:03:42;26.24;46.39
69503;SHT31;56704;54.242;12.442;2023-06-10T11:06:12;26.14;46.69
69503;SHT31;56704;54.242;12.442;2023-06-10T11:08:46;26.22;46.78
69503;SHT31;56704;54.242;12.442;2023-06-10T11:11:23;26.25;46.08
69503;SHT31;56704;54.242;12.442;2023-06-10T11:14:07;26.38;45.79
69503;SHT31;56704;54.242;12.442;2023-06-10T11:16:39;26.49;45.83
69503;SHT31;56704;54.242;12.442;2023-06-10T11:19:08;26.32;46.29
69503;SHT31;56704;54.242;12.442;2023-06-10T11:21:57;26.33;46.12
69503;SHT31;56704;54.242;12.442;2023-06-10T11:24:24;26.60;45.92
69503;SHT31;56704;54.242;12.442;2023-06-10T11:26:53;26.70;44.48
69503;SHT31;56704;54.242;12.442;2023-06-10T11:29:21;26.76;44.74
69503;SHT31;56704;54.242;12.442;2023-06-10T11:31:51;26.92;44.23
69503;SHT31;56704;54.242;12.442;2023-06-10T11:34:22;26.51;43.82
69503;SHT31;56704;54.242;12.442;2023-06-10T11:36:51;26.53;44.25
69503;SHT31;56704;54.242;12.442;2023-06-10T11:39:19;26.43;44.23
69503;SHT31;56704;54.242;12.442;2023-06-10T11:41:46;26.90;43.48
69503;SHT31;56704;54.242;12.442;2023-06-10T11:44:16;26.46;43.51
69503;SHT31;56704;54.242;12.442;2023-06-10T11:46:44;26.76;43.31
69503;SHT31;56704;54.242;12.442;2023-06-10T11:49:11;26.72;43.79
69503;SHT31;56704;54.242;12.442;2023-06-10T11:51:39;27.03;43.02
69503;SHT31;56704;54.242;12.442;2023-06-10T11:54:08;26.97;43.03
69503;SHT31;56704;54.242;12.442;2023-06-10T11:56:35;26.76;43.18
69503;SHT31;56704;54.242;12.442;2023-06-10T11:59:03;27.10;43.24
69503;SHT31;56704;54.242;12.442;2023-06-10T12:01:35;27.33;42.72
69503;SHT31;56704;54.242;12.442;2023-06-10T12:04:03;27.34;42.49
69503;SHT31;56704;54.242;12.442;2023-06-10T12:06:38;27.20;42.84
69503;SHT31;56704;54.242;12.442;2023-06-10T12:09:05;27.68;42.98
69503;SHT31;56704;54.242;12.442;2023-06-10T12:11:32;27.45;42.25
69503;SHT31;56704;54.242;12.442;2023-06-10T12:13:59;27.29;42.40
69503;SHT31;56704;54.242;12.442;2023-06-10T12:16:26;26.83;43.37
69503;SHT31;56704;54.242;12.442;2023-06-10T12:19:01;27.35;42.63
69503;SHT31;56704;54.242;12.442;2023-06-10T12:21:28;27.71;42.01
69503;SHT31;56704;54.242;12.442;2023-06-10T12:24:03;27.68;41.73
69503;SHT31;56704;54.242;12.442;2023-06-10T12:26:35;27.86;41.26
69503;SHT31;56704;54.242;12.442;2023-06-10T12:29:02;27.75;40.09
69503;SHT31;56704;54.242;12.442;2023-06-10T12:31:58;27.68;39.64
69503;SHT31;56704;54.242;12.442;2023-06-10T12:34:35;27.86;39.46
69503;SHT31;56704;54.242;12.442;2023-06-10T12:37:03;27.95;39.31
69503;SHT31;56704;54.242;12.442;2023-06-10T12:39:32;27.88;39.02
69503;SHT31;56704;54.242;12.442;2023-06-10T12:41:59;27.79;39.26
69503;SHT31;56704;54.242;12.442;2023-06-10T12:44:31;27.73;39.28
69503;SHT31;56704;54.242;12.442;2023-06-10T12:46:58;27.84;38.42
69503;SHT31;56704;54.242;12.442;2023-06-10T12:49:24;27.84;37.86
69503;SHT31;56704;54.242;12.442;2023-06-10T12:51:53;27.84;38.18
69503;SHT31;56704;54.242;12.442;2023-06-10T12:54:20;27.62;37.58
69503;SHT31;56704;54.242;12.442;2023-06-10T12:56:46;27.95;37.35
69503;SHT31;56704;54.242;12.442;2023-06-10T12:59:13;27.69;37.60
69503;SHT31;56704;54.242;12.442;2023-06-10T13:01:39;27.81;37.81
69503;SHT31;56704;54.242;12.442;2023-06-10T13:04:06;27.81;37.11
69503;SHT31;56704;54.242;12.442;2023-06-10T13:06:33;27.71;37.48
69503;SHT31;56704;54.242;12.442;2023-06-10T13:09:05;27.88;37.46
69503;SHT31;56704;54.242;12.442;2023-06-10T13:11:32;27.82;37.31
69503;SHT31;56704;54.242;12.442;2023-06-10T13:13:58;27.37;37.79
69503;SHT31;56704;54.242;12.442;2023-06-10T13:16:25;27.45;37.34
69503;SHT31;56704;54.242;12.442;2023-06-10T13:18:53;27.71;37.38
69503;SHT31;56704;54.242;12.442;2023-06-10T13:21:19;27.75;37.59
69503;SHT31;56704;54.242;12.442;2023-06-10T13:23:46;28.06;37.29
69503;SHT31;56704;54.242;12.442;2023-06-10T13:26:15;28.02;37.12
69503;SHT31;56704;54.242;12.442;2023-06-10T13:28:42;28.22;37.13
69503;SHT31;56704;54.242;12.442;2023-06-10T13:31:08;28.24;36.80
69503;SHT31;56704;54.242;12.442;2023-06-10T13:33:35;28.20;37.21
69503;SHT31;56704;54.242;12.442;2023-06-10T13:36:02;28.16;36.59
69503;SHT31;56704;54.242;12.442;2023-06-10T13:38:31;28.16;36.36
69503;SHT31;56704;54.242;12.442;2023-06-10T13:40:58;28.43;36.05
69503;SHT31;56704;54.242;12.442;2023-06-10T13:43:26;28.26;36.31
69503;SHT31;56704;54.242;12.442;2023-06-10T13:45:52;28.14;37.37
69503;SHT31;56704;54.242;12.442;2023-06-10T13:48:19;28.05;36.19
69503;SHT31;56704;54.242;12.442;2023-06-10T13:50:46;27.72;37.30
69503;SHT31;56704;54.242;12.442;2023-06-10T13:53:13;27.58;38.28
69503;SHT31;56704;54.242;12.442;2023-06-10T13:55:40;27.81;37.55
69503;SHT31;56704;54.242;12.442;2023-06-10T13:58:07;27.57;36.51
69503;SHT31;56704;54.242;12.442;2023-06-10T14:00:35;27.55;36.90
69503;SHT31;56704;54.242;12.442;2023-06-10T14:03:01;27.75;37.34
69503;SHT31;56704;54.242;12.442;2023-06-10T14:05:29;27.73;37.81
69503;SHT31;56704;54.242;12.442;2023-06-10T14:07:56;27.57;38.58
69503;SHT31;56704;54.242;12.442;2023-06-10T14:10:22;27.72;38.59
69503;SHT31;56704;54.242;12.442;2023-06-10T14:12:49;27.79;38.74
69503;SHT31;56704;54.242;12.442;2023-06-10T14:15:16;28.12;38.49
69503;SHT31;56704;54.242;12.442;2023-06-10T14:17:44;28.13;38.22
69503;SHT31;56704;54.242;12.442;2023-06-10T14:20:12;27.86;36.66
69503;SHT31;56704;54.242;12.442;2023-06-10T14:22:39;27.41;36.24
69503;SHT31;56704;54.242;12.442;2023-06-10T14:25:06;26.64;37.40
69503;SHT31;56704;54.242;12.442;2023-06-10T14:27:33;26.68;37.81
69503;SHT31;56704;54.242;12.442;2023-06-10T14:30:00;26.52;38.17
69503;SHT31;56704;54.242;12.442;2023-06-10T14:32:28;26.69;37.94
69503;SHT31;56704;54.242;12.442;2023-06-10T14:34:56;26.43;38.71
69503;SHT31;56704;54.242;12.442;2023-06-10T14:37:22;26.43;39.21
69503;SHT31;56704;54.242;12.442;2023-06-10T14:39:49;26.52;38.81
69503;SHT31;56704;54.242;12.442;2023-06-10T14:42:16;26.62;38.73
69503;SHT31;56704;54.242;12.442;2023-06-10T14:44:42;26.62;38.70
69503;SHT31;56704;54.242;12.442;2023-06-10T14:47:09;26.96;37.98
69503;SHT31;56704;54.242;12.442;2023-06-10T14:49:36;26.83;37.54
69503;SHT31;56704;54.242;12.442;2023-06-10T14:52:04;27.04;37.56
69503;SHT31;56704;54.242;12.442;2023-06-10T14:54:31;27.21;37.58
69503;SHT31;56704;54.242;12.442;2023-06-10T14:56:58;27.07;37.10
69503;SHT31;56704;54.242;12.442;2023-06-10T14:59:24;27.33;36.68
69503;SHT31;56704;54.242;12.442;2023-06-10T15:01:51;27.31;36.64
69503;SHT31;56704;54.242;12.442;2023-06-10T15:04:17;26.79;35.91
69503;SHT31;56704;54.242;12.442;2023-06-10T15:06:44;26.99;36.03
69503;SHT31;56704;54.242;12.442;2023-06-10T15:09:15;26.75;34.94
69503;SHT31;56704;54.242;12.442;2023-06-10T15:11:42;26.41;34.81
69503;SHT31;56704;54.242;12.442;2023-06-10T15:14:08;26.56;35.18
69503;SHT31;56704;54.242;12.442;2023-06-10T15:16:35;26.51;35.08
69503;SHT31;56704;54.242;12.442;2023-06-10T15:19:05;26.33;34.59
69503;SHT31;56704;54.242;12.442;2023-06-10T15:21:33;26.26;34.59